Time;durP1;ratioP1;P1;durP2;ratioP2;P2;SDS_P1;SDS_P2;PMS_P1;PMS_P2;Temp;Humidity;BMP_temperature;BMP_pressure;BME280_temperature;BME280_humidity;BME280_pressure;Samples;Min_cycle;Max_cycle;Signal;HPM_P1;HPM_P2
2021/09/25 00:01:43;;;;;;;9.32;1.92;;;;;;;;;;5077115;28;20536;-71
2021/09/25 00:04:09;;;;;;;8.23;1.90;;;;;;;;;;5088228;28;20118;-72
2021/09/25 00:06:34;;;;;;;8.93;1.83;;;;;;;;;;5076639;28;20034;-73
2021/09/25 00:09:00;;;;;;;9.48;2.10;;;;;;;;;;5090673;28;20028;-73
2021/09/25 00:11:28;;;;;;;5.38;2.22;;;;;;;;;;5077521;28;20108;-72
2021/09/25 00:13:54;;;;;;;9.07;2.22;;;;;;;;;;5092271;28;20078;-74
2021/09/25 00:16:20;;;;;;;6.38;2.20;;;;;;;;;;5084640;28;20032;-74
2021/09/25 00:18:45;;;;;;;6.55;2.22;;;;;;;;;;5085345;28;20073;-74
2021/09/25 00:21:11;;;;;;;13.25;2.50;;;;;;;;;;5081964;28;20078;-73
2021/09/25 00:23:36;;;;;;;8.52;2.55;;;;;;;;;;5090762;28;20028;-73
2021/09/25 00:26:02;;;;;;;9.70;3.03;;;;;;;;;;5076314;28;20469;-73
2021/09/25 00:28:27;;;;;;;8.30;2.38;;;;;;;;;;5073812;28;20028;-73
2021/09/25 00:30:53;;;;;;;9.07;2.28;;;;;;;;;;5080714;28;20028;-73
2021/09/25 00:33:19;;;;;;;8.05;2.20;;;;;;;;;;5074938;28;20115;-74
2021/09/25 00:35:44;;;;;;;11.50;2.30;;;;;;;;;;5079389;28;20034;-73
2021/09/25 00:38:10;;;;;;;9.13;2.20;;;;;;;;;;5087290;28;20358;-74
2021/09/25 00:40:35;;;;;;;8.40;2.13;;;;;;;;;;5072452;28;20217;-73
2021/09/25 00:43:01;;;;;;;7.53;2.42;;;;;;;;;;5086171;28;20020;-73
2021/09/25 00:45:27;;;;;;;5.10;2.08;;;;;;;;;;5089549;28;20021;-75
2021/09/25 00:47:52;;;;;;;7.03;2.17;;;;;;;;;;5088542;28;20023;-74
2021/09/25 00:50:18;;;;;;;6.03;2.30;;;;;;;;;;5071870;28;20035;-74
2021/09/25 00:52:45;;;;;;;6.65;2.28;;;;;;;;;;5073357;28;20025;-74
2021/09/25 00:55:12;;;;;;;6.68;2.05;;;;;;;;;;5082935;28;20455;-74
2021/09/25 00:57:38;;;;;;;5.25;1.85;;;;;;;;;;5091920;28;20031;-74
2021/09/25 01:00:06;;;;;;;7.97;2.00;;;;;;;;;;5072686;28;20475;-74
2021/09/25 01:02:35;;;;;;;6.03;1.92;;;;;;;;;;5081040;28;20385;-73
2021/09/25 01:05:00;;;;;;;7.65;1.90;;;;;;;;;;5071767;28;20039;-74
2021/09/25 01:07:26;;;;;;;5.85;2.05;;;;;;;;;;5072451;28;20020;-73
2021/09/25 01:09:53;;;;;;;4.60;1.80;;;;;;;;;;5087632;28;20365;-74
2021/09/25 01:12:18;;;;;;;9.63;1.90;;;;;;;;;;5081632;28;20490;-74
2021/09/25 01:14:44;;;;;;;7.82;2.15;;;;;;;;;;5083965;28;20028;-75
2021/09/25 01:17:12;;;;;;;4.47;1.75;;;;;;;;;;5091084;28;20486;-74
2021/09/25 01:19:38;;;;;;;4.85;1.80;;;;;;;;;;5090190;28;20495;-74
2021/09/25 01:22:05;;;;;;;8.77;1.83;;;;;;;;;;5083228;28;20035;-75
2021/09/25 01:24:32;;;;;;;6.85;1.80;;;;;;;;;;5085570;28;20035;-75
2021/09/25 01:26:58;;;;;;;5.72;1.83;;;;;;;;;;5091643;28;20260;-75
2021/09/25 01:29:24;;;;;;;7.55;2.00;;;;;;;;;;5077782;28;20024;-74
2021/09/25 01:31:50;;;;;;;4.85;1.50;;;;;;;;;;5075436;28;20047;-74
2021/09/25 01:34:16;;;;;;;3.33;1.38;;;;;;;;;;5082633;28;20024;-73
2021/09/25 01:36:41;;;;;;;5.30;1.70;;;;;;;;;;5091515;28;20354;-74
2021/09/25 01:39:07;;;;;;;5.97;1.33;;;;;;;;;;5089698;28;20028;-73
2021/09/25 01:41:33;;;;;;;3.38;1.30;;;;;;;;;;5091127;28;20128;-75
2021/09/25 01:43:58;;;;;;;3.28;1.13;;;;;;;;;;5071197;28;20388;-74
2021/09/25 01:46:24;;;;;;;2.28;1.17;;;;;;;;;;5082962;28;20035;-73
2021/09/25 01:48:49;;;;;;;5.25;1.50;;;;;;;;;;5071003;28;20492;-73
2021/09/25 01:51:15;;;;;;;3.90;1.20;;;;;;;;;;5065924;28;20024;-73
2021/09/25 01:53:41;;;;;;;4.53;1.23;;;;;;;;;;5088423;28;20028;-73
2021/09/25 01:56:11;;;;;;;6.55;1.60;;;;;;;;;;5081865;28;20028;-74
2021/09/25 01:58:37;;;;;;;5.68;1.20;;;;;;;;;;5089767;28;20023;-74
2021/09/25 02:01:04;;;;;;;4.78;1.52;;;;;;;;;;5090210;28;20024;-74
2021/09/25 02:03:29;;;;;;;5.80;1.10;;;;;;;;;;5087443;28;20417;-74
2021/09/25 02:05:55;;;;;;;3.22;1.10;;;;;;;;;;5069147;28;20107;-74
2021/09/25 02:08:20;;;;;;;4.68;1.17;;;;;;;;;;5084951;28;20031;-74
2021/09/25 02:10:46;;;;;;;4.53;1.02;;;;;;;;;;5069838;28;20503;-75
2021/09/25 02:13:11;;;;;;;3.13;1.08;;;;;;;;;;5083733;28;20529;-75
2021/09/25 02:15:37;;;;;;;5.13;1.00;;;;;;;;;;5077113;28;20039;-74
2021/09/25 02:18:02;;;;;;;1.55;0.73;;;;;;;;;;5079467;28;20106;-75
2021/09/25 02:20:29;;;;;;;3.55;1.00;;;;;;;;;;5070672;28;20100;-74
2021/09/25 02:22:54;;;;;;;5.75;1.00;;;;;;;;;;5076765;28;20027;-74
2021/09/25 02:25:20;;;;;;;1.65;0.68;;;;;;;;;;5070811;28;20021;-75
2021/09/25 02:27:49;;;;;;;5.38;1.00;;;;;;;;;;5070857;28;20150;-74
2021/09/25 02:30:16;;;;;;;3.25;0.98;;;;;;;;;;5066929;28;20020;-75
2021/09/25 02:32:42;;;;;;;3.35;0.90;;;;;;;;;;5070108;28;20074;-73
2021/09/25 02:35:09;;;;;;;2.78;0.90;;;;;;;;;;5073644;28;20027;-74
2021/09/25 02:37:34;;;;;;;3.83;1.10;;;;;;;;;;5088858;28;20016;-74
2021/09/25 02:40:00;;;;;;;4.68;0.80;;;;;;;;;;5056787;28;20047;-75
2021/09/25 02:42:26;;;;;;;3.47;1.05;;;;;;;;;;5082509;28;20094;-73
2021/09/25 02:44:51;;;;;;;3.38;1.10;;;;;;;;;;5070922;28;20059;-74
2021/09/25 02:47:18;;;;;;;6.03;1.20;;;;;;;;;;5070719;28;20031;-73
2021/09/25 02:49:43;;;;;;;3.35;1.00;;;;;;;;;;5070758;28;20487;-75
2021/09/25 02:52:08;;;;;;;2.17;1.10;;;;;;;;;;5084892;28;20020;-73
2021/09/25 02:54:34;;;;;;;4.40;1.30;;;;;;;;;;5094666;28;20020;-74
2021/09/25 02:56:59;;;;;;;4.10;1.00;;;;;;;;;;5078388;28;20024;-74
2021/09/25 02:59:25;;;;;;;3.20;1.10;;;;;;;;;;5090740;28;20028;-73
2021/09/25 03:01:50;;;;;;;4.43;1.10;;;;;;;;;;5090168;28;20024;-73
2021/09/25 03:04:16;;;;;;;6.43;1.20;;;;;;;;;;5093858;28;20408;-73
2021/09/25 03:06:41;;;;;;;5.30;1.42;;;;;;;;;;5088651;28;20020;-73
2021/09/25 03:09:07;;;;;;;5.35;1.33;;;;;;;;;;5091727;28;20022;-73
2021/09/25 03:11:32;;;;;;;6.78;1.08;;;;;;;;;;5074904;28;20388;-73
2021/09/25 03:13:59;;;;;;;4.78;1.10;;;;;;;;;;5074196;28;20047;-74
2021/09/25 03:16:24;;;;;;;6.65;2.13;;;;;;;;;;5092312;28;20028;-75
2021/09/25 03:18:50;;;;;;;6.18;1.30;;;;;;;;;;5094266;28;20036;-74
2021/09/25 03:21:15;;;;;;;7.07;1.38;;;;;;;;;;5093460;28;20031;-74
2021/09/25 03:23:42;;;;;;;8.50;1.40;;;;;;;;;;5092611;28;20464;-74
2021/09/25 03:26:07;;;;;;;4.75;1.00;;;;;;;;;;5094271;28;20016;-74
2021/09/25 03:28:33;;;;;;;4.95;1.48;;;;;;;;;;5091076;28;20123;-74
2021/09/25 03:30:59;;;;;;;8.15;1.50;;;;;;;;;;5085908;28;20028;-74
2021/09/25 03:33:24;;;;;;;4.90;1.50;;;;;;;;;;5074592;28;20025;-74
2021/09/25 03:35:50;;;;;;;7.55;1.63;;;;;;;;;;5094150;28;20069;-73
2021/09/25 03:38:21;;;;;;;5.63;1.40;;;;;;;;;;5084784;28;20051;-73
2021/09/25 03:40:49;;;;;;;9.07;1.60;;;;;;;;;;5093084;28;20033;-73
2021/09/25 03:43:15;;;;;;;7.88;1.48;;;;;;;;;;5074655;28;20032;-74
2021/09/25 03:45:41;;;;;;;9.15;1.42;;;;;;;;;;5091960;28;20028;-73
2021/09/25 03:48:06;;;;;;;7.40;1.38;;;;;;;;;;5073874;28;20024;-73
2021/09/25 03:50:35;;;;;;;8.93;1.85;;;;;;;;;;5089833;28;20096;-74
2021/09/25 03:53:02;;;;;;;9.02;2.05;;;;;;;;;;5089498;28;20042;-73
2021/09/25 03:55:27;;;;;;;9.95;1.80;;;;;;;;;;5090133;28;20025;-73
2021/09/25 03:57:53;;;;;;;12.05;3.50;;;;;;;;;;5089085;28;20089;-73
2021/09/25 04:00:19;;;;;;;10.07;1.60;;;;;;;;;;5074273;28;20066;-74
2021/09/25 04:02:45;;;;;;;7.72;1.48;;;;;;;;;;5072780;28;20057;-74
2021/09/25 04:05:11;;;;;;;9.32;1.60;;;;;;;;;;5074619;28;20419;-74
2021/09/25 04:07:37;;;;;;;5.75;1.55;;;;;;;;;;5092656;28;20499;-74
2021/09/25 04:10:06;;;;;;;6.70;1.45;;;;;;;;;;5084413;28;20313;-73
2021/09/25 04:12:32;;;;;;;10.45;1.70;;;;;;;;;;5085348;28;20073;-73
2021/09/25 04:14:57;;;;;;;8.93;2.03;;;;;;;;;;5092311;28;20044;-73
2021/09/25 04:17:22;;;;;;;7.32;1.70;;;;;;;;;;5087261;28;20028;-73
2021/09/25 04:19:48;;;;;;;8.60;1.52;;;;;;;;;;5072907;28;20131;-72
2021/09/25 04:22:13;;;;;;;8.55;1.77;;;;;;;;;;5072340;28;20087;-72
2021/09/25 04:24:39;;;;;;;11.77;1.92;;;;;;;;;;5072983;28;20107;-73
2021/09/25 04:27:04;;;;;;;10.95;2.30;;;;;;;;;;5072964;28;20460;-73
2021/09/25 04:29:30;;;;;;;9.35;1.95;;;;;;;;;;5065192;28;20115;-73
2021/09/25 04:31:55;;;;;;;11.45;2.35;;;;;;;;;;5074652;28;20040;-74
2021/09/25 04:34:21;;;;;;;10.18;2.05;;;;;;;;;;5063393;28;20029;-73
2021/09/25 04:36:46;;;;;;;10.02;2.00;;;;;;;;;;5052678;28;20033;-73
2021/09/25 04:39:12;;;;;;;12.23;2.42;;;;;;;;;;5067394;28;20159;-73
2021/09/25 04:41:37;;;;;;;11.60;2.60;;;;;;;;;;5076371;28;20353;-74
2021/09/25 04:44:03;;;;;;;9.65;1.85;;;;;;;;;;5068588;28;20031;-74
2021/09/25 04:46:29;;;;;;;13.30;2.42;;;;;;;;;;5073242;28;20388;-74
2021/09/25 04:48:54;;;;;;;8.60;2.00;;;;;;;;;;5068500;28;20465;-75
2021/09/25 04:51:20;;;;;;;10.93;2.38;;;;;;;;;;5065641;28;20130;-74
2021/09/25 04:53:46;;;;;;;13.85;2.10;;;;;;;;;;5069730;28;20035;-73
2021/09/25 04:56:11;;;;;;;11.98;2.67;;;;;;;;;;5062102;28;20103;-73
2021/09/25 04:58:38;;;;;;;15.05;2.60;;;;;;;;;;5059977;28;20052;-72
2021/09/25 05:01:05;;;;;;;8.98;2.00;;;;;;;;;;5052254;28;20082;-74
2021/09/25 05:03:33;;;;;;;11.13;2.55;;;;;;;;;;5066222;28;20124;-72
2021/09/25 05:05:58;;;;;;;12.90;2.58;;;;;;;;;;5073124;28;20495;-73
2021/09/25 05:08:24;;;;;;;11.00;2.35;;;;;;;;;;5091860;28;20020;-72
2021/09/25 05:10:49;;;;;;;14.50;2.63;;;;;;;;;;5071619;28;20465;-73
2021/09/25 05:13:15;;;;;;;16.70;2.47;;;;;;;;;;5071628;28;20020;-73
2021/09/25 05:15:40;;;;;;;13.20;2.55;;;;;;;;;;5065912;28;21583;-73
2021/09/25 05:18:06;;;;;;;10.95;2.47;;;;;;;;;;5090149;28;20115;-73
2021/09/25 05:20:31;;;;;;;14.02;2.15;;;;;;;;;;5053242;28;20103;-73
2021/09/25 05:22:57;;;;;;;11.02;2.45;;;;;;;;;;5064468;28;20089;-74
2021/09/25 05:25:22;;;;;;;14.13;2.40;;;;;;;;;;5061979;28;20035;-73
2021/09/25 05:27:49;;;;;;;16.42;2.78;;;;;;;;;;5077517;28;20020;-73
2021/09/25 05:30:14;;;;;;;18.95;3.25;;;;;;;;;;5068729;28;20028;-73
2021/09/25 05:32:40;;;;;;;13.30;2.17;;;;;;;;;;5060650;28;20016;-73
2021/09/25 05:35:06;;;;;;;18.65;3.50;;;;;;;;;;5076893;28;20024;-73
2021/09/25 05:37:32;;;;;;;17.60;2.85;;;;;;;;;;5090145;28;20224;-72
2021/09/25 05:39:58;;;;;;;17.80;2.58;;;;;;;;;;5077279;28;20544;-74
2021/09/25 05:42:25;;;;;;;13.55;3.45;;;;;;;;;;5068672;28;20036;-73
2021/09/25 05:44:54;;;;;;;14.32;2.40;;;;;;;;;;5071063;28;20464;-73
2021/09/25 05:47:20;;;;;;;16.13;2.67;;;;;;;;;;5082163;28;20028;-72
2021/09/25 05:49:46;;;;;;;14.70;3.03;;;;;;;;;;5053435;28;20101;-74
2021/09/25 05:52:13;;;;;;;14.55;2.20;;;;;;;;;;5071337;28;20020;-73
2021/09/25 05:54:38;;;;;;;15.10;3.05;;;;;;;;;;5074044;28;20047;-74
2021/09/25 05:57:05;;;;;;;11.95;2.28;;;;;;;;;;5091354;28;20016;-73
2021/09/25 05:59:31;;;;;;;14.73;2.97;;;;;;;;;;5073285;28;20028;-73
2021/09/25 06:01:56;;;;;;;13.98;2.85;;;;;;;;;;5081166;28;20094;-73
2021/09/25 06:04:22;;;;;;;13.38;2.70;;;;;;;;;;5085783;28;20044;-73
2021/09/25 06:06:48;;;;;;;18.00;3.00;;;;;;;;;;5086438;28;20052;-73
2021/09/25 06:09:13;;;;;;;16.23;3.13;;;;;;;;;;5076975;28;20460;-73
2021/09/25 06:11:39;;;;;;;15.63;2.97;;;;;;;;;;5064132;28;20034;-73
2021/09/25 06:14:04;;;;;;;13.55;2.70;;;;;;;;;;5065854;28;20094;-73
2021/09/25 06:16:30;;;;;;;16.10;2.92;;;;;;;;;;5065196;28;20519;-74
2021/09/25 06:18:55;;;;;;;14.10;3.08;;;;;;;;;;5055400;28;20068;-73
2021/09/25 06:21:21;;;;;;;15.80;2.70;;;;;;;;;;5058698;28;20032;-72
2021/09/25 06:23:47;;;;;;;16.95;3.60;;;;;;;;;;5063860;28;20051;-73
2021/09/25 06:26:13;;;;;;;19.13;3.85;;;;;;;;;;5089151;28;20483;-74
2021/09/25 06:28:41;;;;;;;13.63;2.75;;;;;;;;;;5074438;28;20020;-73
2021/09/25 06:31:07;;;;;;;18.48;4.03;;;;;;;;;;5075228;28;20476;-73
2021/09/25 06:33:32;;;;;;;15.50;2.80;;;;;;;;;;5074963;28;20036;-74
2021/09/25 06:35:58;;;;;;;16.95;2.97;;;;;;;;;;5057059;28;20119;-72
2021/09/25 06:38:23;;;;;;;20.98;3.00;;;;;;;;;;5075895;28;20130;-73
2021/09/25 06:40:49;;;;;;;17.77;3.05;;;;;;;;;;5075321;28;20461;-73
2021/09/25 06:43:14;;;;;;;14.18;2.55;;;;;;;;;;5074823;28;20048;-72
2021/09/25 06:45:40;;;;;;;16.48;3.42;;;;;;;;;;5085592;28;20051;-72
2021/09/25 06:48:07;;;;;;;19.27;3.15;;;;;;;;;;5095172;28;20051;-74
2021/09/25 06:50:33;;;;;;;21.67;3.83;;;;;;;;;;5086946;28;20075;-74
2021/09/25 06:52:58;;;;;;;19.85;2.78;;;;;;;;;;5074769;28;20476;-74
2021/09/25 06:55:24;;;;;;;12.93;2.25;;;;;;;;;;5079316;28;20020;-74
2021/09/25 06:57:50;;;;;;;19.13;3.05;;;;;;;;;;5074530;28;20039;-74
2021/09/25 07:00:15;;;;;;;17.02;3.13;;;;;;;;;;5074389;28;20425;-73
2021/09/25 07:02:41;;;;;;;17.48;3.42;;;;;;;;;;5074771;28;20496;-73
2021/09/25 07:05:08;;;;;;;12.80;2.67;;;;;;;;;;5074888;28;20423;-72
2021/09/25 07:07:34;;;;;;;18.95;3.53;;;;;;;;;;5073976;28;20441;-73
2021/09/25 07:10:00;;;;;;;16.23;2.65;;;;;;;;;;5074174;28;20039;-73
2021/09/25 07:12:25;;;;;;;17.42;3.88;;;;;;;;;;5086983;28;20033;-72
2021/09/25 07:14:52;;;;;;;15.07;2.95;;;;;;;;;;5078627;28;20028;-72
2021/09/25 07:17:18;;;;;;;17.52;3.45;;;;;;;;;;5085448;28;20020;-73
2021/09/25 07:19:43;;;;;;;15.77;3.30;;;;;;;;;;5073568;28;20043;-73
2021/09/25 07:22:09;;;;;;;17.30;3.83;;;;;;;;;;5074305;28;20024;-74
2021/09/25 07:24:36;;;;;;;24.38;3.72;;;;;;;;;;5075267;28;20103;-73
2021/09/25 07:27:01;;;;;;;18.60;3.05;;;;;;;;;;5093743;28;20458;-76
2021/09/25 07:29:29;;;;;;;16.45;3.15;;;;;;;;;;5093314;28;20063;-73
2021/09/25 07:31:55;;;;;;;18.02;3.70;;;;;;;;;;5076225;28;20465;-74
2021/09/25 07:34:20;;;;;;;15.88;2.83;;;;;;;;;;5055585;28;20119;-73
2021/09/25 07:36:46;;;;;;;23.90;3.45;;;;;;;;;;5072348;28;20052;-74
2021/09/25 07:39:13;;;;;;;21.73;4.28;;;;;;;;;;5072868;28;20067;-76
2021/09/25 07:41:39;;;;;;;15.40;3.00;;;;;;;;;;5073791;28;20078;-75
2021/09/25 07:44:05;;;;;;;21.95;4.35;;;;;;;;;;5076665;28;20353;-72
2021/09/25 07:46:32;;;;;;;14.23;2.83;;;;;;;;;;5071910;28;20066;-73
2021/09/25 07:48:59;;;;;;;19.77;3.55;;;;;;;;;;5079795;28;20023;-72
2021/09/25 07:51:26;;;;;;;14.00;2.90;;;;;;;;;;5093739;28;20426;-74
2021/09/25 07:53:51;;;;;;;16.80;3.22;;;;;;;;;;5087824;28;20052;-73
2021/09/25 07:56:17;;;;;;;14.52;2.50;;;;;;;;;;5074113;28;20071;-72
2021/09/25 07:58:43;;;;;;;20.52;3.53;;;;;;;;;;5073803;28;20082;-74
2021/09/25 08:01:08;;;;;;;15.90;2.75;;;;;;;;;;5075098;28;20020;-75
2021/09/25 08:03:34;;;;;;;20.15;3.20;;;;;;;;;;5081815;28;20086;-72
2021/09/25 08:06:00;;;;;;;12.95;2.90;;;;;;;;;;5077126;28;20097;-76
2021/09/25 08:08:25;;;;;;;16.48;3.92;;;;;;;;;;5086718;28;20496;-74
2021/09/25 08:10:51;;;;;;;14.80;3.03;;;;;;;;;;5076759;28;20028;-75
2021/09/25 08:13:17;;;;;;;16.40;3.47;;;;;;;;;;5080876;28;20110;-74
2021/09/25 08:15:43;;;;;;;14.73;2.75;;;;;;;;;;5084325;28;20119;-73
2021/09/25 08:18:08;;;;;;;18.55;3.03;;;;;;;;;;5094087;28;20516;-72
2021/09/25 08:20:34;;;;;;;15.48;2.67;;;;;;;;;;5093407;28;20486;-74
2021/09/25 08:22:59;;;;;;;14.82;3.05;;;;;;;;;;5085579;28;20032;-73
2021/09/25 08:25:25;;;;;;;16.17;2.80;;;;;;;;;;5089425;28;20031;-75
2021/09/25 08:27:51;;;;;;;17.10;2.97;;;;;;;;;;5085939;28;20122;-73
2021/09/25 08:30:19;;;;;;;18.65;3.10;;;;;;;;;;5079128;28;20025;-74
2021/09/25 08:32:45;;;;;;;17.30;3.00;;;;;;;;;;5070917;28;20031;-75
2021/09/25 08:35:11;;;;;;;17.20;3.53;;;;;;;;;;5085012;28;20033;-72
2021/09/25 08:37:38;;;;;;;18.52;3.30;;;;;;;;;;5070585;28;20150;-73
2021/09/25 08:40:07;;;;;;;19.23;4.03;;;;;;;;;;5077464;28;20547;-74
2021/09/25 08:42:32;;;;;;;16.48;3.28;;;;;;;;;;5077863;28;20024;-73
2021/09/25 08:44:57;;;;;;;15.57;2.70;;;;;;;;;;5073735;28;20094;-72
2021/09/25 08:47:23;;;;;;;21.95;3.45;;;;;;;;;;5073676;28;20031;-72
2021/09/25 08:49:49;;;;;;;16.90;3.33;;;;;;;;;;5068579;28;20396;-75
2021/09/25 08:52:16;;;;;;;16.63;3.55;;;;;;;;;;5079699;28;20028;-73
2021/09/25 08:54:41;;;;;;;14.68;2.70;;;;;;;;;;5081898;28;20464;-74
2021/09/25 08:57:07;;;;;;;16.70;3.22;;;;;;;;;;5090099;28;20043;-75
2021/09/25 08:59:32;;;;;;;12.43;2.30;;;;;;;;;;5076599;28;20032;-75
2021/09/25 09:02:19;;;;;;;18.88;3.22;;;;;;;;;;5084870;28;20115;-74
2021/09/25 09:04:52;;;;;;;10.90;2.92;;;;;;;;;;5077033;28;20036;-74
2021/09/25 09:07:21;;;;;;;20.20;3.65;;;;;;;;;;5051787;28;20040;-74
2021/09/25 09:09:47;;;;;;;20.67;3.42;;;;;;;;;;5082790;28;20031;-73
2021/09/25 09:12:26;;;;;;;12.63;2.70;;;;;;;;;;5073432;28;20020;-73
2021/09/25 09:14:53;;;;;;;16.33;3.15;;;;;;;;;;5070923;28;20043;-75
2021/09/25 09:17:28;;;;;;;15.68;3.28;;;;;;;;;;5073299;28;20489;-73
2021/09/25 09:19:54;;;;;;;15.77;3.00;;;;;;;;;;5080743;28;20472;-72
2021/09/25 09:22:22;;;;;;;13.77;3.28;;;;;;;;;;5076665;28;20029;-72
2021/09/25 09:24:53;;;;;;;15.73;2.55;;;;;;;;;;5076696;28;20036;-73
2021/09/25 09:27:27;;;;;;;16.65;2.90;;;;;;;;;;5074048;28;20072;-74
2021/09/25 09:30:08;;;;;;;15.13;2.75;;;;;;;;;;5068883;28;20055;-75
2021/09/25 09:32:38;;;;;;;15.10;2.65;;;;;;;;;;5082407;28;20028;-73
2021/09/25 09:35:11;;;;;;;11.65;2.65;;;;;;;;;;5078551;28;20042;-73
2021/09/25 09:37:37;;;;;;;15.15;3.10;;;;;;;;;;5063902;28;20376;-74
2021/09/25 09:40:05;;;;;;;16.23;3.40;;;;;;;;;;5075955;28;20039;-72
2021/09/25 09:42:32;;;;;;;16.25;2.95;;;;;;;;;;5072227;28;20356;-75
2021/09/25 09:44:58;;;;;;;14.80;2.88;;;;;;;;;;5073194;28;20050;-73
2021/09/25 09:47:24;;;;;;;16.42;2.80;;;;;;;;;;5071237;28;20377;-74
2021/09/25 09:49:56;;;;;;;11.32;2.22;;;;;;;;;;5076069;28;20115;-76
2021/09/25 09:52:22;;;;;;;10.25;2.10;;;;;;;;;;5072755;28;20029;-74
2021/09/25 09:54:53;;;;;;;10.38;2.20;;;;;;;;;;5077743;28;20091;-74
2021/09/25 09:57:19;;;;;;;11.23;2.63;;;;;;;;;;5085469;28;20035;-75
2021/09/25 09:59:47;;;;;;;12.82;2.85;;;;;;;;;;5078717;28;20463;-75
2021/09/25 10:02:13;;;;;;;15.38;4.10;;;;;;;;;;5070653;28;20024;-74
2021/09/25 10:04:39;;;;;;;13.73;2.67;;;;;;;;;;5072115;28;20028;-74
2021/09/25 10:07:07;;;;;;;14.82;3.50;;;;;;;;;;5072554;28;20032;-73
2021/09/25 10:09:35;;;;;;;14.85;2.97;;;;;;;;;;5079726;28;20170;-73
2021/09/25 10:12:04;;;;;;;14.32;2.63;;;;;;;;;;5072864;28;20028;-73
2021/09/25 10:14:34;;;;;;;13.65;2.70;;;;;;;;;;5048765;28;20024;-74
2021/09/25 10:17:02;;;;;;;20.13;3.22;;;;;;;;;;5070520;28;20372;-73
2021/09/25 10:19:31;;;;;;;14.57;2.90;;;;;;;;;;5071318;28;20485;-73
2021/09/25 10:22:11;;;;;;;15.75;2.65;;;;;;;;;;5060106;28;20126;-72
2021/09/25 10:24:39;;;;;;;12.27;2.40;;;;;;;;;;5071607;28;20035;-74
2021/09/25 10:27:07;;;;;;;17.20;2.70;;;;;;;;;;5072006;28;20029;-75
2021/09/25 10:29:33;;;;;;;10.20;2.53;;;;;;;;;;5072110;28;20021;-73
2021/09/25 10:32:15;;;;;;;17.00;2.50;;;;;;;;;;5072548;28;20035;-74
2021/09/25 10:35:06;;;;;;;13.75;3.20;;;;;;;;;;5074873;28;20465;-74
2021/09/25 10:37:42;;;;;;;15.80;2.78;;;;;;;;;;5072217;28;20020;-73
2021/09/25 10:40:15;;;;;;;11.85;2.28;;;;;;;;;;5072292;28;20017;-73
2021/09/25 10:43:00;;;;;;;14.20;2.43;;;;;;;;;;5072033;28;20081;-74
2021/09/25 10:45:27;;;;;;;13.30;2.60;;;;;;;;;;5068441;28;20115;-73
2021/09/25 10:48:14;;;;;;;14.45;2.13;;;;;;;;;;5078953;28;20468;-73
2021/09/25 10:50:53;;;;;;;10.60;2.28;;;;;;;;;;5071942;28;20020;-73
2021/09/25 10:53:24;;;;;;;14.13;2.58;;;;;;;;;;5073688;28;20047;-73
2021/09/25 10:55:54;;;;;;;8.20;2.17;;;;;;;;;;5073077;28;20070;-73
2021/09/25 10:58:22;;;;;;;11.43;2.30;;;;;;;;;;5072026;28;20065;-74
2021/09/25 11:00:57;;;;;;;13.95;2.65;;;;;;;;;;5071709;28;20555;-75
2021/09/25 11:06:45;;;;;;;11.70;1.80;;;;;;;;;;5074309;28;20068;-76
2021/09/25 11:09:18;;;;;;;10.15;1.90;;;;;;;;;;5077912;28;20028;-73
2021/09/25 11:11:52;;;;;;;13.35;1.70;;;;;;;;;;5079263;28;20058;-73
2021/09/25 11:14:31;;;;;;;11.70;2.30;;;;;;;;;;5076749;28;20124;-73
2021/09/25 11:17:00;;;;;;;15.50;2.45;;;;;;;;;;5078418;28;20324;-74
2021/09/25 11:19:29;;;;;;;14.07;2.03;;;;;;;;;;5074608;28;20035;-73
2021/09/25 11:22:07;;;;;;;13.45;2.50;;;;;;;;;;5085243;28;20058;-74
2021/09/25 11:24:55;;;;;;;8.52;1.75;;;;;;;;;;5072053;28;20028;-74
2021/09/25 11:27:27;;;;;;;12.90;2.15;;;;;;;;;;5057991;28;20036;-77
2021/09/25 11:30:04;;;;;;;13.32;1.88;;;;;;;;;;5055876;28;20021;-72
2021/09/25 11:32:45;;;;;;;8.85;1.92;;;;;;;;;;5083502;28;20513;-75
2021/09/25 11:35:13;;;;;;;12.75;2.33;;;;;;;;;;5075327;28;20456;-72
2021/09/25 11:38:03;;;;;;;11.98;2.17;;;;;;;;;;5079938;28;20098;-72
2021/09/25 11:40:36;;;;;;;11.40;2.10;;;;;;;;;;5068865;28;20040;-74
2021/09/25 11:43:11;;;;;;;8.63;2.00;;;;;;;;;;5082283;28;20504;-75
2021/09/25 11:45:42;;;;;;;14.27;2.58;;;;;;;;;;5082443;28;20119;-73
2021/09/25 11:48:09;;;;;;;7.40;1.85;;;;;;;;;;5085912;28;20082;-72
2021/09/25 11:50:50;;;;;;;9.85;1.60;;;;;;;;;;5076513;28;20040;-73
2021/09/25 11:53:18;;;;;;;10.80;2.22;;;;;;;;;;5062961;28;20035;-73
2021/09/25 11:55:45;;;;;;;15.90;2.03;;;;;;;;;;5069201;28;20071;-73
2021/09/25 11:58:13;;;;;;;11.43;1.90;;;;;;;;;;5068275;28;20060;-73
2021/09/25 12:00:46;;;;;;;10.65;1.63;;;;;;;;;;5076524;28;20058;-73
2021/09/25 12:03:12;;;;;;;6.88;1.45;;;;;;;;;;5058347;28;20086;-72
2021/09/25 12:05:40;;;;;;;13.75;2.38;;;;;;;;;;5082373;28;20080;-73
2021/09/25 12:08:08;;;;;;;9.55;1.70;;;;;;;;;;5084396;28;20027;-74
2021/09/25 12:10:40;;;;;;;9.93;1.67;;;;;;;;;;5086074;28;20024;-73
2021/09/25 12:13:08;;;;;;;12.75;2.42;;;;;;;;;;5083126;28;20027;-72
2021/09/25 12:15:39;;;;;;;10.27;1.75;;;;;;;;;;5056832;28;20033;-75
2021/09/25 12:18:21;;;;;;;9.18;1.65;;;;;;;;;;5079189;28;20414;-73
2021/09/25 12:21:01;;;;;;;10.15;1.60;;;;;;;;;;5082780;28;20028;-74
2021/09/25 12:23:35;;;;;;;11.25;1.80;;;;;;;;;;5076819;28;20024;-73
2021/09/25 12:26:03;;;;;;;11.48;1.58;;;;;;;;;;5087358;28;20069;-74
2021/09/25 12:28:38;;;;;;;9.50;1.92;;;;;;;;;;5080960;28;20021;-72
2021/09/25 12:31:09;;;;;;;9.32;1.70;;;;;;;;;;5060621;28;20032;-74
2021/09/25 12:33:45;;;;;;;7.20;1.77;;;;;;;;;;5083734;28;20032;-73
2021/09/25 12:36:11;;;;;;;8.27;1.85;;;;;;;;;;5086143;28;20456;-73
2021/09/25 12:38:43;;;;;;;12.23;2.00;;;;;;;;;;5082279;28;20407;-73
2021/09/25 12:41:13;;;;;;;7.75;1.70;;;;;;;;;;5086576;28;20028;-74
2021/09/25 12:43:43;;;;;;;10.63;1.80;;;;;;;;;;5086923;28;20124;-73
2021/09/25 12:46:13;;;;;;;9.00;1.80;;;;;;;;;;5085374;28;20157;-74
2021/09/25 12:49:04;;;;;;;6.20;1.20;;;;;;;;;;5084952;28;20431;-73
2021/09/25 12:51:32;;;;;;;7.70;1.48;;;;;;;;;;5089935;28;20020;-73
2021/09/25 12:53:57;;;;;;;10.18;1.75;;;;;;;;;;5081955;28;20028;-76
2021/09/25 12:56:23;;;;;;;7.70;1.30;;;;;;;;;;5083238;28;20081;-73
2021/09/25 12:58:52;;;;;;;7.30;1.52;;;;;;;;;;5074712;28;20036;-73
2021/09/25 13:01:27;;;;;;;9.48;1.58;;;;;;;;;;5080342;28;20028;-73
2021/09/25 13:03:53;;;;;;;7.25;1.88;;;;;;;;;;5070795;28;20052;-73
2021/09/25 13:06:23;;;;;;;6.53;1.73;;;;;;;;;;5083056;28;20024;-73
2021/09/25 13:08:59;;;;;;;8.93;1.77;;;;;;;;;;5085308;28;20016;-74
2021/09/25 13:11:24;;;;;;;6.53;1.20;;;;;;;;;;5066674;28;20029;-73
2021/09/25 13:14:13;;;;;;;7.85;1.55;;;;;;;;;;5073873;28;20021;-73
2021/09/25 13:16:40;;;;;;;7.22;1.50;;;;;;;;;;5079622;28;20028;-73
2021/09/25 13:19:07;;;;;;;10.70;2.25;;;;;;;;;;5077446;28;20051;-73
2021/09/25 13:21:34;;;;;;;10.15;1.65;;;;;;;;;;5076001;28;20035;-73
2021/09/25 13:24:06;;;;;;;6.28;1.23;;;;;;;;;;5079557;28;20024;-73
2021/09/25 13:26:33;;;;;;;8.30;1.77;;;;;;;;;;5076792;28;20024;-74
2021/09/25 13:28:59;;;;;;;5.18;0.98;;;;;;;;;;5081229;28;20483;-73
2021/09/25 13:31:25;;;;;;;7.75;1.48;;;;;;;;;;5078833;28;20108;-73
2021/09/25 13:33:51;;;;;;;6.90;2.13;;;;;;;;;;5078663;28;20040;-71
2021/09/25 13:36:16;;;;;;;8.18;1.70;;;;;;;;;;5086097;28;20147;-72
2021/09/25 13:38:42;;;;;;;9.27;1.80;;;;;;;;;;5079063;28;20562;-73
2021/09/25 13:41:07;;;;;;;6.18;1.45;;;;;;;;;;5069626;28;20081;-73
2021/09/25 13:43:33;;;;;;;8.23;1.48;;;;;;;;;;5067597;28;20035;-73
2021/09/25 13:45:59;;;;;;;9.65;1.60;;;;;;;;;;5072382;28;20090;-72
2021/09/25 13:48:24;;;;;;;5.10;1.55;;;;;;;;;;5083445;28;20028;-73
2021/09/25 13:50:50;;;;;;;8.45;1.25;;;;;;;;;;5065854;28;20020;-73
2021/09/25 13:53:15;;;;;;;8.05;1.30;;;;;;;;;;5080430;28;20209;-73
2021/09/25 13:55:41;;;;;;;5.57;1.13;;;;;;;;;;5073638;28;20020;-73
2021/09/25 13:58:06;;;;;;;7.28;1.60;;;;;;;;;;5075939;28;20036;-73
2021/09/25 14:00:32;;;;;;;7.38;1.27;;;;;;;;;;5084032;28;20035;-73
2021/09/25 14:02:58;;;;;;;7.90;1.33;;;;;;;;;;5079711;28;20256;-72
2021/09/25 14:05:27;;;;;;;7.78;1.38;;;;;;;;;;5076230;28;20027;-73
2021/09/25 14:07:53;;;;;;;7.72;1.33;;;;;;;;;;5057759;28;20027;-72
2021/09/25 14:10:18;;;;;;;8.20;1.80;;;;;;;;;;5070862;28;20404;-73
2021/09/25 14:12:44;;;;;;;6.10;1.02;;;;;;;;;;5081214;28;20500;-73
2021/09/25 14:15:09;;;;;;;7.63;1.40;;;;;;;;;;5070906;28;20021;-74
2021/09/25 14:17:35;;;;;;;5.72;1.27;;;;;;;;;;5081173;28;20028;-74
2021/09/25 14:20:01;;;;;;;5.93;1.30;;;;;;;;;;5064477;28;20519;-74
2021/09/25 14:22:27;;;;;;;5.57;1.27;;;;;;;;;;5078797;28;20024;-73
2021/09/25 14:24:52;;;;;;;7.97;1.38;;;;;;;;;;5077265;28;20036;-74
2021/09/25 14:27:17;;;;;;;7.75;1.25;;;;;;;;;;5076193;28;20032;-74
2021/09/25 14:29:43;;;;;;;10.45;1.70;;;;;;;;;;5072398;28;20426;-74
2021/09/25 14:32:10;;;;;;;9.13;1.60;;;;;;;;;;5078726;28;20020;-72
2021/09/25 14:34:36;;;;;;;6.55;1.25;;;;;;;;;;5081901;28;20024;-74
2021/09/25 14:37:02;;;;;;;4.75;1.15;;;;;;;;;;5080908;28;20062;-73
2021/09/25 14:39:27;;;;;;;5.72;1.20;;;;;;;;;;5080925;28;20097;-73
2021/09/25 14:41:59;;;;;;;5.03;1.48;;;;;;;;;;5070358;28;20020;-73